sensor_id;sensor_type;location;lat;lon;timestamp;temperature;humidity
22192;DHT22;11261;52.456;10.850;2024-01-06T00:00:57;2.90;99.90
22192;DHT22;11261;52.456;10.850;2024-01-06T00:03:26;2.80;99.90
22192;DHT22;11261;52.456;10.850;2024-01-06T00:09:42;2.90;99.90
22192;DHT22;11261;52.456;10.850;2024-01-06T00:12:11;2.80;99.90
22192;DHT22;11261;52.456;10.850;2024-01-06T00:14:41;2.80;99.90
22192;DHT22;11261;52.456;10.850;2024-01-06T00:17:12;2.80;99.90
22192;DHT22;11261;52.456;10.850;2024-01-06T00:19:40;2.80;99.90
22192;DHT22;11261;52.456;10.850;2024-01-06T00:22:10;2.80;99.90
22192;DHT22;11261;52.456;10.850;2024-01-06T00:24:38;2.90;99.90
22192;DHT22;11261;52.456;10.850;2024-01-06T00:27:07;2.80;99.90
22192;DHT22;11261;52.456;10.850;2024-01-06T00:29:35;2.80;99.90
22192;DHT22;11261;52.456;10.850;2024-01-06T00:32:05;2.80;99.90
22192;DHT22;11261;52.456;10.850;2024-01-06T00:34:34;2.80;99.90
22192;DHT22;11261;52.456;10.850;2024-01-06T00:37:03;2.80;99.90
22192;DHT22;11261;52.456;10.850;2024-01-06T00:39:31;2.80;99.90
22192;DHT22;11261;52.456;10.850;2024-01-06T00:42:01;2.80;99.90
22192;DHT22;11261;52.456;10.850;2024-01-06T00:44:29;2.80;99.90
22192;DHT22;11261;52.456;10.850;2024-01-06T00:46:57;2.80;99.90
22192;DHT22;11261;52.456;10.850;2024-01-06T00:49:27;2.80;99.90
22192;DHT22;11261;52.456;10.850;2024-01-06T00:51:56;2.80;99.90
22192;DHT22;11261;52.456;10.850;2024-01-06T00:54:25;2.90;99.90
22192;DHT22;11261;52.456;10.850;2024-01-06T00:56:53;2.90;99.90
22192;DHT22;11261;52.456;10.850;2024-01-06T00:59:24;2.80;99.90
22192;DHT22;11261;52.456;10.850;2024-01-06T01:01:54;2.90;99.90
22192;DHT22;11261;52.456;10.850;2024-01-06T01:04:23;3.00;99.90
22192;DHT22;11261;52.456;10.850;2024-01-06T01:06:53;2.90;99.90
22192;DHT22;11261;52.456;10.850;2024-01-06T01:09:22;2.90;99.90
22192;DHT22;11261;52.456;10.850;2024-01-06T01:11:51;3.00;99.90
22192;DHT22;11261;52.456;10.850;2024-01-06T01:14:19;3.00;99.90
22192;DHT22;11261;52.456;10.850;2024-01-06T01:16:48;2.90;99.90
22192;DHT22;11261;52.456;10.850;2024-01-06T01:19:17;2.90;99.90
22192;DHT22;11261;52.456;10.850;2024-01-06T01:21:45;2.90;99.90
22192;DHT22;11261;52.456;10.850;2024-01-06T01:24:15;3.00;99.90
22192;DHT22;11261;52.456;10.850;2024-01-06T01:26:44;3.00;99.90
22192;DHT22;11261;52.456;10.850;2024-01-06T01:29:12;2.90;99.90
22192;DHT22;11261;52.456;10.850;2024-01-06T01:31:41;2.90;99.90
22192;DHT22;11261;52.456;10.850;2024-01-06T01:34:09;2.90;99.90
22192;DHT22;11261;52.456;10.850;2024-01-06T01:36:38;3.00;99.90
22192;DHT22;11261;52.456;10.850;2024-01-06T01:39:07;3.00;99.90
22192;DHT22;11261;52.456;10.850;2024-01-06T01:41:39;2.90;99.90
22192;DHT22;11261;52.456;10.850;2024-01-06T01:44:07;3.00;99.90
22192;DHT22;11261;52.456;10.850;2024-01-06T01:46:36;3.00;99.90
22192;DHT22;11261;52.456;10.850;2024-01-06T01:49:05;3.00;99.90
22192;DHT22;11261;52.456;10.850;2024-01-06T01:51:35;3.00;99.90
22192;DHT22;11261;52.456;10.850;2024-01-06T01:54:06;3.00;99.90
22192;DHT22;11261;52.456;10.850;2024-01-06T01:56:38;3.00;99.90
22192;DHT22;11261;52.456;10.850;2024-01-06T01:59:11;3.00;99.90
22192;DHT22;11261;52.456;10.850;2024-01-06T02:01:40;3.00;99.90
22192;DHT22;11261;52.456;10.850;2024-01-06T02:04:08;2.90;99.90
22192;DHT22;11261;52.456;10.850;2024-01-06T02:06:37;2.90;99.90
22192;DHT22;11261;52.456;10.850;2024-01-06T02:09:06;2.90;99.90
22192;DHT22;11261;52.456;10.850;2024-01-06T02:11:35;2.90;99.90
22192;DHT22;11261;52.456;10.850;2024-01-06T02:14:05;2.90;99.90
22192;DHT22;11261;52.456;10.850;2024-01-06T02:16:34;3.00;99.90
22192;DHT22;11261;52.456;10.850;2024-01-06T02:19:02;2.90;99.90
22192;DHT22;11261;52.456;10.850;2024-01-06T02:21:31;2.90;99.90
22192;DHT22;11261;52.456;10.850;2024-01-06T02:24:04;3.00;99.90
22192;DHT22;11261;52.456;10.850;2024-01-06T02:26:33;3.00;99.90
22192;DHT22;11261;52.456;10.850;2024-01-06T02:29:01;2.90;99.90
22192;DHT22;11261;52.456;10.850;2024-01-06T02:31:30;2.90;99.90
22192;DHT22;11261;52.456;10.850;2024-01-06T02:33:58;2.90;99.90
22192;DHT22;11261;52.456;10.850;2024-01-06T02:36:27;2.90;99.90
22192;DHT22;11261;52.456;10.850;2024-01-06T02:38:56;2.90;99.90
22192;DHT22;11261;52.456;10.850;2024-01-06T02:41:26;2.90;99.90
22192;DHT22;11261;52.456;10.850;2024-01-06T02:43:54;2.90;99.90
22192;DHT22;11261;52.456;10.850;2024-01-06T02:46:23;2.90;99.90
22192;DHT22;11261;52.456;10.850;2024-01-06T02:48:52;2.90;99.90
22192;DHT22;11261;52.456;10.850;2024-01-06T02:51:21;2.90;99.90
22192;DHT22;11261;52.456;10.850;2024-01-06T02:53:49;2.90;99.90
22192;DHT22;11261;52.456;10.850;2024-01-06T02:56:18;3.00;99.90
22192;DHT22;11261;52.456;10.850;2024-01-06T02:58:48;3.00;99.90
22192;DHT22;11261;52.456;10.850;2024-01-06T03:01:17;2.90;99.90
22192;DHT22;11261;52.456;10.850;2024-01-06T03:03:46;3.00;99.90
22192;DHT22;11261;52.456;10.850;2024-01-06T03:06:15;2.90;99.90
22192;DHT22;11261;52.456;10.850;2024-01-06T03:08:44;2.90;99.90
22192;DHT22;11261;52.456;10.850;2024-01-06T03:11:12;2.90;99.90
22192;DHT22;11261;52.456;10.850;2024-01-06T03:13:42;3.00;99.90
22192;DHT22;11261;52.456;10.850;2024-01-06T03:16:12;2.90;99.90
22192;DHT22;11261;52.456;10.850;2024-01-06T03:18:41;3.00;99.90
22192;DHT22;11261;52.456;10.850;2024-01-06T03:21:17;2.90;99.90
22192;DHT22;11261;52.456;10.850;2024-01-06T03:23:46;2.90;99.90
22192;DHT22;11261;52.456;10.850;2024-01-06T03:26:14;2.90;99.90
22192;DHT22;11261;52.456;10.850;2024-01-06T03:28:43;2.90;99.90
22192;DHT22;11261;52.456;10.850;2024-01-06T03:31:13;2.90;99.90
22192;DHT22;11261;52.456;10.850;2024-01-06T03:33:43;2.90;99.90
22192;DHT22;11261;52.456;10.850;2024-01-06T03:36:13;2.90;99.90
22192;DHT22;11261;52.456;10.850;2024-01-06T03:38:43;2.90;99.90
22192;DHT22;11261;52.456;10.850;2024-01-06T03:41:12;2.90;99.90
22192;DHT22;11261;52.456;10.850;2024-01-06T03:43:40;2.80;99.90
22192;DHT22;11261;52.456;10.850;2024-01-06T03:46:09;2.90;99.90
22192;DHT22;11261;52.456;10.850;2024-01-06T03:48:38;2.80;99.90
22192;DHT22;11261;52.456;10.850;2024-01-06T03:51:07;2.80;99.90
22192;DHT22;11261;52.456;10.850;2024-01-06T03:53:36;2.90;99.90
22192;DHT22;11261;52.456;10.850;2024-01-06T03:56:05;2.90;99.90
22192;DHT22;11261;52.456;10.850;2024-01-06T03:58:34;2.90;99.90
22192;DHT22;11261;52.456;10.850;2024-01-06T04:01:02;2.80;99.90
22192;DHT22;11261;52.456;10.850;2024-01-06T04:03:31;2.90;99.90
22192;DHT22;11261;52.456;10.850;2024-01-06T04:06:01;2.90;99.90
22192;DHT22;11261;52.456;10.850;2024-01-06T04:08:30;2.80;99.90
22192;DHT22;11261;52.456;10.850;2024-01-06T04:10:59;2.80;99.90
22192;DHT22;11261;52.456;10.850;2024-01-06T04:13:28;2.80;99.90
22192;DHT22;11261;52.456;10.850;2024-01-06T04:15:56;2.80;99.90
22192;DHT22;11261;52.456;10.850;2024-01-06T04:18:25;2.90;99.90
22192;DHT22;11261;52.456;10.850;2024-01-06T04:20:54;2.90;99.90
22192;DHT22;11261;52.456;10.850;2024-01-06T04:23:24;2.80;99.90
22192;DHT22;11261;52.456;10.850;2024-01-06T04:25:52;2.80;99.90
22192;DHT22;11261;52.456;10.850;2024-01-06T04:28:21;2.80;99.90
22192;DHT22;11261;52.456;10.850;2024-01-06T04:30:50;2.80;99.90
22192;DHT22;11261;52.456;10.850;2024-01-06T04:33:19;2.90;99.90
22192;DHT22;11261;52.456;10.850;2024-01-06T04:35:48;2.90;99.90
22192;DHT22;11261;52.456;10.850;2024-01-06T04:38:17;2.80;99.90
22192;DHT22;11261;52.456;10.850;2024-01-06T04:40:47;2.90;99.90
22192;DHT22;11261;52.456;10.850;2024-01-06T04:43:16;2.80;99.90
22192;DHT22;11261;52.456;10.850;2024-01-06T04:45:45;2.80;99.90
22192;DHT22;11261;52.456;10.850;2024-01-06T04:48:13;2.90;99.90
22192;DHT22;11261;52.456;10.850;2024-01-06T04:50:42;2.90;99.90
22192;DHT22;11261;52.456;10.850;2024-01-06T04:53:10;2.80;99.90
22192;DHT22;11261;52.456;10.850;2024-01-06T04:55:39;2.90;99.90
22192;DHT22;11261;52.456;10.850;2024-01-06T04:58:09;2.80;99.90
22192;DHT22;11261;52.456;10.850;2024-01-06T05:00:37;2.80;99.90
22192;DHT22;11261;52.456;10.850;2024-01-06T05:03:06;2.80;99.90
22192;DHT22;11261;52.456;10.850;2024-01-06T05:05:35;2.80;99.90
22192;DHT22;11261;52.456;10.850;2024-01-06T05:08:04;2.80;99.90
22192;DHT22;11261;52.456;10.850;2024-01-06T05:10:33;2.80;99.90
22192;DHT22;11261;52.456;10.850;2024-01-06T05:13:01;2.80;99.90
22192;DHT22;11261;52.456;10.850;2024-01-06T05:15:31;2.80;99.90
22192;DHT22;11261;52.456;10.850;2024-01-06T05:17:59;2.80;99.90
22192;DHT22;11261;52.456;10.850;2024-01-06T05:20:28;2.90;99.90
22192;DHT22;11261;52.456;10.850;2024-01-06T05:22:57;2.80;99.90
22192;DHT22;11261;52.456;10.850;2024-01-06T05:25:25;2.80;99.90
22192;DHT22;11261;52.456;10.850;2024-01-06T05:27:54;2.80;99.90
22192;DHT22;11261;52.456;10.850;2024-01-06T05:30:23;2.90;99.90
22192;DHT22;11261;52.456;10.850;2024-01-06T05:32:53;2.80;99.90
22192;DHT22;11261;52.456;10.850;2024-01-06T05:35:21;2.90;99.90
22192;DHT22;11261;52.456;10.850;2024-01-06T05:37:50;2.90;99.90
22192;DHT22;11261;52.456;10.850;2024-01-06T05:40:19;2.80;99.90
22192;DHT22;11261;52.456;10.850;2024-01-06T05:42:47;2.80;99.90
22192;DHT22;11261;52.456;10.850;2024-01-06T05:45:16;2.80;99.90
22192;DHT22;11261;52.456;10.850;2024-01-06T05:47:44;2.80;99.90
22192;DHT22;11261;52.456;10.850;2024-01-06T05:50:15;2.80;99.90
22192;DHT22;11261;52.456;10.850;2024-01-06T05:52:44;2.70;99.90
22192;DHT22;11261;52.456;10.850;2024-01-06T05:55:15;2.80;99.90
22192;DHT22;11261;52.456;10.850;2024-01-06T05:57:44;2.80;99.90
22192;DHT22;11261;52.456;10.850;2024-01-06T06:00:13;2.90;99.90
22192;DHT22;11261;52.456;10.850;2024-01-06T06:02:42;2.90;99.90
22192;DHT22;11261;52.456;10.850;2024-01-06T06:05:11;2.80;99.90
22192;DHT22;11261;52.456;10.850;2024-01-06T06:07:42;2.80;99.90
22192;DHT22;11261;52.456;10.850;2024-01-06T06:10:11;2.80;99.90
22192;DHT22;11261;52.456;10.850;2024-01-06T06:12:40;2.80;99.90
22192;DHT22;11261;52.456;10.850;2024-01-06T06:15:09;2.80;99.90
22192;DHT22;11261;52.456;10.850;2024-01-06T06:17:38;2.90;99.90
22192;DHT22;11261;52.456;10.850;2024-01-06T06:20:07;2.80;99.90
22192;DHT22;11261;52.456;10.850;2024-01-06T06:22:36;2.80;99.90
22192;DHT22;11261;52.456;10.850;2024-01-06T06:25:07;2.70;99.90
22192;DHT22;11261;52.456;10.850;2024-01-06T06:27:36;2.80;99.90
22192;DHT22;11261;52.456;10.850;2024-01-06T06:30:07;2.80;99.90
22192;DHT22;11261;52.456;10.850;2024-01-06T06:32:36;2.80;99.90
22192;DHT22;11261;52.456;10.850;2024-01-06T06:35:06;2.80;99.90
22192;DHT22;11261;52.456;10.850;2024-01-06T06:37:34;2.80;99.90
22192;DHT22;11261;52.456;10.850;2024-01-06T06:40:04;2.70;99.90
22192;DHT22;11261;52.456;10.850;2024-01-06T06:42:34;2.70;99.90
22192;DHT22;11261;52.456;10.850;2024-01-06T06:45:03;2.70;99.90
22192;DHT22;11261;52.456;10.850;2024-01-06T06:47:32;2.80;99.90
22192;DHT22;11261;52.456;10.850;2024-01-06T06:50:01;2.80;99.90
22192;DHT22;11261;52.456;10.850;2024-01-06T06:52:29;2.90;99.90
22192;DHT22;11261;52.456;10.850;2024-01-06T06:54:57;2.80;99.90
22192;DHT22;11261;52.456;10.850;2024-01-06T06:57:26;2.70;99.90
22192;DHT22;11261;52.456;10.850;2024-01-06T06:59:56;2.70;99.90
22192;DHT22;11261;52.456;10.850;2024-01-06T07:02:24;2.70;99.90
22192;DHT22;11261;52.456;10.850;2024-01-06T07:04:53;2.70;99.90
22192;DHT22;11261;52.456;10.850;2024-01-06T07:07:22;2.70;99.90
22192;DHT22;11261;52.456;10.850;2024-01-06T07:09:50;2.70;99.90
22192;DHT22;11261;52.456;10.850;2024-01-06T07:12:19;2.70;99.90
22192;DHT22;11261;52.456;10.850;2024-01-06T07:14:48;2.70;99.90
22192;DHT22;11261;52.456;10.850;2024-01-06T07:17:18;2.60;99.90
22192;DHT22;11261;52.456;10.850;2024-01-06T07:19:47;2.60;99.90
22192;DHT22;11261;52.456;10.850;2024-01-06T07:22:16;2.60;99.90
22192;DHT22;11261;52.456;10.850;2024-01-06T07:24:45;2.60;99.90
22192;DHT22;11261;52.456;10.850;2024-01-06T07:27:14;2.70;99.90
22192;DHT22;11261;52.456;10.850;2024-01-06T07:29:43;2.60;99.90
22192;DHT22;11261;52.456;10.850;2024-01-06T07:32:11;2.60;99.90
22192;DHT22;11261;52.456;10.850;2024-01-06T07:34:41;2.60;99.90
22192;DHT22;11261;52.456;10.850;2024-01-06T07:37:10;2.60;99.90
22192;DHT22;11261;52.456;10.850;2024-01-06T07:39:39;2.70;99.90
22192;DHT22;11261;52.456;10.850;2024-01-06T07:42:07;2.60;99.90
22192;DHT22;11261;52.456;10.850;2024-01-06T07:44:36;2.60;99.90
22192;DHT22;11261;52.456;10.850;2024-01-06T07:47:05;2.60;99.90
22192;DHT22;11261;52.456;10.850;2024-01-06T07:49:33;2.60;99.90
22192;DHT22;11261;52.456;10.850;2024-01-06T07:52:04;2.60;99.90
22192;DHT22;11261;52.456;10.850;2024-01-06T07:54:32;2.60;99.90
22192;DHT22;11261;52.456;10.850;2024-01-06T07:57:01;2.60;99.90
22192;DHT22;11261;52.456;10.850;2024-01-06T07:59:30;2.60;99.90
22192;DHT22;11261;52.456;10.850;2024-01-06T08:01:58;2.60;99.90
22192;DHT22;11261;52.456;10.850;2024-01-06T08:04:27;2.50;99.90
22192;DHT22;11261;52.456;10.850;2024-01-06T08:06:56;2.50;99.90
22192;DHT22;11261;52.456;10.850;2024-01-06T08:09:26;2.50;99.90
22192;DHT22;11261;52.456;10.850;2024-01-06T08:11:54;2.50;99.90
22192;DHT22;11261;52.456;10.850;2024-01-06T08:14:23;2.40;99.90
22192;DHT22;11261;52.456;10.850;2024-01-06T08:16:51;2.50;99.90
22192;DHT22;11261;52.456;10.850;2024-01-06T08:19:20;2.40;99.90
22192;DHT22;11261;52.456;10.850;2024-01-06T08:21:49;2.50;99.90
22192;DHT22;11261;52.456;10.850;2024-01-06T08:24:18;2.50;99.90
22192;DHT22;11261;52.456;10.850;2024-01-06T08:26:48;2.50;99.90
22192;DHT22;11261;52.456;10.850;2024-01-06T08:29:17;2.50;99.90
22192;DHT22;11261;52.456;10.850;2024-01-06T08:31:47;2.40;99.90
22192;DHT22;11261;52.456;10.850;2024-01-06T08:34:17;2.50;99.90
22192;DHT22;11261;52.456;10.850;2024-01-06T08:36:46;2.50;99.90
22192;DHT22;11261;52.456;10.850;2024-01-06T08:39:14;2.40;99.90
22192;DHT22;11261;52.456;10.850;2024-01-06T08:41:43;2.40;99.90
22192;DHT22;11261;52.456;10.850;2024-01-06T08:44:14;2.40;99.90
22192;DHT22;11261;52.456;10.850;2024-01-06T08:46:43;2.40;99.90
22192;DHT22;11261;52.456;10.850;2024-01-06T08:49:12;2.40;99.90
22192;DHT22;11261;52.456;10.850;2024-01-06T08:51:40;2.40;99.90
22192;DHT22;11261;52.456;10.850;2024-01-06T08:54:09;2.40;99.90
22192;DHT22;11261;52.456;10.850;2024-01-06T08:56:37;2.40;99.90
22192;DHT22;11261;52.456;10.850;2024-01-06T08:59:05;2.30;99.90
22192;DHT22;11261;52.456;10.850;2024-01-06T09:01:36;2.30;99.90
22192;DHT22;11261;52.456;10.850;2024-01-06T09:04:06;2.30;99.90
22192;DHT22;11261;52.456;10.850;2024-01-06T09:06:35;2.30;99.90
22192;DHT22;11261;52.456;10.850;2024-01-06T09:09:03;2.30;99.90
22192;DHT22;11261;52.456;10.850;2024-01-06T09:11:32;2.30;99.90
22192;DHT22;11261;52.456;10.850;2024-01-06T09:14:01;2.30;99.90
22192;DHT22;11261;52.456;10.850;2024-01-06T09:16:29;2.30;99.90
22192;DHT22;11261;52.456;10.850;2024-01-06T09:18:59;2.30;99.90
22192;DHT22;11261;52.456;10.850;2024-01-06T09:21:27;2.30;99.90
22192;DHT22;11261;52.456;10.850;2024-01-06T09:23:56;2.30;99.90
22192;DHT22;11261;52.456;10.850;2024-01-06T09:26:24;2.20;99.90
22192;DHT22;11261;52.456;10.850;2024-01-06T09:28:53;2.20;99.90
22192;DHT22;11261;52.456;10.850;2024-01-06T09:31:21;2.30;99.90
22192;DHT22;11261;52.456;10.850;2024-01-06T09:33:51;2.20;99.90
22192;DHT22;11261;52.456;10.850;2024-01-06T09:36:21;2.20;99.90
22192;DHT22;11261;52.456;10.850;2024-01-06T09:38:49;2.20;99.90
22192;DHT22;11261;52.456;10.850;2024-01-06T09:41:18;2.30;99.90
22192;DHT22;11261;52.456;10.850;2024-01-06T09:43:47;2.20;99.90
22192;DHT22;11261;52.456;10.850;2024-01-06T09:46:23;2.20;99.90
22192;DHT22;11261;52.456;10.850;2024-01-06T09:48:54;2.20;99.90
22192;DHT22;11261;52.456;10.850;2024-01-06T09:51:24;2.30;99.90
22192;DHT22;11261;52.456;10.850;2024-01-06T09:53:57;2.30;99.90
22192;DHT22;11261;52.456;10.850;2024-01-06T09:56:28;2.30;99.90
22192;DHT22;11261;52.456;10.850;2024-01-06T09:58:57;2.20;99.90
22192;DHT22;11261;52.456;10.850;2024-01-06T10:01:26;2.30;99.90
22192;DHT22;11261;52.456;10.850;2024-01-06T10:03:54;2.30;99.90
22192;DHT22;11261;52.456;10.850;2024-01-06T10:06:24;2.20;99.90
22192;DHT22;11261;52.456;10.850;2024-01-06T10:08:54;2.20;99.90
22192;DHT22;11261;52.456;10.850;2024-01-06T10:11:22;2.30;99.90
22192;DHT22;11261;52.456;10.850;2024-01-06T10:13:51;2.20;99.90
22192;DHT22;11261;52.456;10.850;2024-01-06T10:16:21;2.10;99.90
22192;DHT22;11261;52.456;10.850;2024-01-06T10:18:49;2.20;99.90
22192;DHT22;11261;52.456;10.850;2024-01-06T10:21:20;2.30;99.90
22192;DHT22;11261;52.456;10.850;2024-01-06T10:23:51;2.20;99.90
22192;DHT22;11261;52.456;10.850;2024-01-06T10:26:22;2.10;99.90
22192;DHT22;11261;52.456;10.850;2024-01-06T10:28:51;2.20;99.90
22192;DHT22;11261;52.456;10.850;2024-01-06T10:31:19;2.10;99.90
22192;DHT22;11261;52.456;10.850;2024-01-06T10:33:48;2.10;99.90
22192;DHT22;11261;52.456;10.850;2024-01-06T10:36:16;2.10;99.90
22192;DHT22;11261;52.456;10.850;2024-01-06T10:38:45;2.10;99.90
22192;DHT22;11261;52.456;10.850;2024-01-06T10:41:16;2.00;99.90
22192;DHT22;11261;52.456;10.850;2024-01-06T10:43:45;2.10;99.90
22192;DHT22;11261;52.456;10.850;2024-01-06T10:46:14;2.10;99.90
22192;DHT22;11261;52.456;10.850;2024-01-06T10:48:44;2.10;99.90
22192;DHT22;11261;52.456;10.850;2024-01-06T10:51:13;2.00;99.90
22192;DHT22;11261;52.456;10.850;2024-01-06T10:53:43;2.10;99.90
22192;DHT22;11261;52.456;10.850;2024-01-06T10:56:11;2.00;99.90
22192;DHT22;11261;52.456;10.850;2024-01-06T10:58:46;1.90;99.90
22192;DHT22;11261;52.456;10.850;2024-01-06T11:01:20;2.00;99.90
22192;DHT22;11261;52.456;10.850;2024-01-06T11:03:55;2.00;99.90
22192;DHT22;11261;52.456;10.850;2024-01-06T11:06:24;2.00;99.90
22192;DHT22;11261;52.456;10.850;2024-01-06T11:08:59;1.90;99.90
22192;DHT22;11261;52.456;10.850;2024-01-06T11:11:28;2.10;99.90
22192;DHT22;11261;52.456;10.850;2024-01-06T11:14:20;2.00;99.90
22192;DHT22;11261;52.456;10.850;2024-01-06T11:16:49;1.90;99.90
22192;DHT22;11261;52.456;10.850;2024-01-06T11:19:44;2.00;99.90
22192;DHT22;11261;52.456;10.850;2024-01-06T11:22:25;1.90;99.90
22192;DHT22;11261;52.456;10.850;2024-01-06T11:24:57;1.90;99.90
22192;DHT22;11261;52.456;10.850;2024-01-06T11:27:31;2.00;99.90
22192;DHT22;11261;52.456;10.850;2024-01-06T11:30:03;1.90;99.90
22192;DHT22;11261;52.456;10.850;2024-01-06T11:32:34;2.00;99.90
22192;DHT22;11261;52.456;10.850;2024-01-06T11:35:07;1.90;99.90
22192;DHT22;11261;52.456;10.850;2024-01-06T11:37:51;1.90;99.90
22192;DHT22;11261;52.456;10.850;2024-01-06T11:40:25;2.00;99.90
22192;DHT22;11261;52.456;10.850;2024-01-06T11:42:58;2.00;99.90
22192;DHT22;11261;52.456;10.850;2024-01-06T11:45:28;2.00;99.90
22192;DHT22;11261;52.456;10.850;2024-01-06T11:47:58;1.90;99.90
22192;DHT22;11261;52.456;10.850;2024-01-06T11:50:27;2.00;99.90
22192;DHT22;11261;52.456;10.850;2024-01-06T11:52:56;1.80;99.90
22192;DHT22;11261;52.456;10.850;2024-01-06T11:55:25;1.90;99.90
22192;DHT22;11261;52.456;10.850;2024-01-06T11:57:55;2.00;99.90
22192;DHT22;11261;52.456;10.850;2024-01-06T12:00:25;1.90;99.90
22192;DHT22;11261;52.456;10.850;2024-01-06T12:02:57;1.90;99.90
22192;DHT22;11261;52.456;10.850;2024-01-06T12:05:27;1.90;99.90
22192;DHT22;11261;52.456;10.850;2024-01-06T12:07:57;2.00;99.90
22192;DHT22;11261;52.456;10.850;2024-01-06T12:10:26;2.00;99.90
22192;DHT22;11261;52.456;10.850;2024-01-06T12:12:57;1.90;99.90
22192;DHT22;11261;52.456;10.850;2024-01-06T12:15:27;1.90;99.90
22192;DHT22;11261;52.456;10.850;2024-01-06T12:17:58;1.80;99.90
22192;DHT22;11261;52.456;10.850;2024-01-06T12:20:26;1.90;99.90
22192;DHT22;11261;52.456;10.850;2024-01-06T12:22:56;2.00;99.90
22192;DHT22;11261;52.456;10.850;2024-01-06T12:25:26;1.90;99.90
22192;DHT22;11261;52.456;10.850;2024-01-06T12:27:56;1.80;99.90
22192;DHT22;11261;52.456;10.850;2024-01-06T12:30:25;1.90;99.90
22192;DHT22;11261;52.456;10.850;2024-01-06T12:32:56;1.90;99.90
22192;DHT22;11261;52.456;10.850;2024-01-06T12:35:26;2.00;99.90
22192;DHT22;11261;52.456;10.850;2024-01-06T12:37:55;1.90;99.90
22192;DHT22;11261;52.456;10.850;2024-01-06T12:40:23;1.80;99.90
22192;DHT22;11261;52.456;10.850;2024-01-06T12:42:53;1.80;99.90
22192;DHT22;11261;52.456;10.850;2024-01-06T12:45:22;1.80;99.90
22192;DHT22;11261;52.456;10.850;2024-01-06T12:47:50;1.70;99.90
22192;DHT22;11261;52.456;10.850;2024-01-06T12:50:20;1.80;99.90
22192;DHT22;11261;52.456;10.850;2024-01-06T12:52:49;1.80;99.90
22192;DHT22;11261;52.456;10.850;2024-01-06T12:55:18;1.80;99.90
22192;DHT22;11261;52.456;10.850;2024-01-06T12:57:46;1.80;99.90
22192;DHT22;11261;52.456;10.850;2024-01-06T13:00:16;2.00;99.90
22192;DHT22;11261;52.456;10.850;2024-01-06T13:02:44;2.00;99.90
22192;DHT22;11261;52.456;10.850;2024-01-06T13:05:13;2.00;99.90
22192;DHT22;11261;52.456;10.850;2024-01-06T13:07:43;1.80;99.90
22192;DHT22;11261;52.456;10.850;2024-01-06T13:10:11;1.80;99.90
22192;DHT22;11261;52.456;10.850;2024-01-06T13:12:40;1.80;99.90
22192;DHT22;11261;52.456;10.850;2024-01-06T13:15:09;1.70;99.90
22192;DHT22;11261;52.456;10.850;2024-01-06T13:17:38;1.70;99.90
22192;DHT22;11261;52.456;10.850;2024-01-06T13:20:08;1.70;99.90
22192;DHT22;11261;52.456;10.850;2024-01-06T13:22:36;1.80;99.90
22192;DHT22;11261;52.456;10.850;2024-01-06T13:25:09;1.70;99.90
22192;DHT22;11261;52.456;10.850;2024-01-06T13:27:38;1.70;99.90
22192;DHT22;11261;52.456;10.850;2024-01-06T13:30:08;1.70;99.90
22192;DHT22;11261;52.456;10.850;2024-01-06T13:32:37;1.70;99.90
22192;DHT22;11261;52.456;10.850;2024-01-06T13:35:06;1.70;99.90
22192;DHT22;11261;52.456;10.850;2024-01-06T13:37:38;1.70;99.90
22192;DHT22;11261;52.456;10.850;2024-01-06T13:40:09;1.60;99.90
22192;DHT22;11261;52.456;10.850;2024-01-06T13:42:37;1.60;99.90
22192;DHT22;11261;52.456;10.850;2024-01-06T13:45:06;1.50;99.90
22192;DHT22;11261;52.456;10.850;2024-01-06T13:47:35;1.50;99.90
22192;DHT22;11261;52.456;10.850;2024-01-06T13:50:04;1.60;99.90
22192;DHT22;11261;52.456;10.850;2024-01-06T13:52:33;1.50;99.90
22192;DHT22;11261;52.456;10.850;2024-01-06T13:55:03;1.40;99.90
22192;DHT22;11261;52.456;10.850;2024-01-06T13:57:33;1.50;99.90
22192;DHT22;11261;52.456;10.850;2024-01-06T14:00:02;1.40;99.90
22192;DHT22;11261;52.456;10.850;2024-01-06T14:02:31;1.40;99.90
22192;DHT22;11261;52.456;10.850;2024-01-06T14:05:00;1.40;99.90
22192;DHT22;11261;52.456;10.850;2024-01-06T14:07:28;1.40;99.90
22192;DHT22;11261;52.456;10.850;2024-01-06T14:09:57;1.30;99.90
22192;DHT22;11261;52.456;10.850;2024-01-06T14:12:25;1.40;99.90
22192;DHT22;11261;52.456;10.850;2024-01-06T14:14:55;1.20;99.90
22192;DHT22;11261;52.456;10.850;2024-01-06T14:17:23;1.10;99.90
22192;DHT22;11261;52.456;10.850;2024-01-06T14:19:52;1.20;99.90
22192;DHT22;11261;52.456;10.850;2024-01-06T14:22:21;1.10;99.90
22192;DHT22;11261;52.456;10.850;2024-01-06T14:24:49;1.10;99.90
22192;DHT22;11261;52.456;10.850;2024-01-06T14:27:18;1.10;99.90
22192;DHT22;11261;52.456;10.850;2024-01-06T14:29:47;1.20;99.90
22192;DHT22;11261;52.456;10.850;2024-01-06T14:32:16;1.00;99.90
22192;DHT22;11261;52.456;10.850;2024-01-06T14:34:45;1.10;99.90
22192;DHT22;11261;52.456;10.850;2024-01-06T14:37:14;1.10;99.90
22192;DHT22;11261;52.456;10.850;2024-01-06T14:39:42;1.10;99.90
22192;DHT22;11261;52.456;10.850;2024-01-06T14:42:11;1.20;99.90
22192;DHT22;11261;52.456;10.850;2024-01-06T14:44:39;1.10;99.90
22192;DHT22;11261;52.456;10.850;2024-01-06T14:47:07;1.00;99.90
22192;DHT22;11261;52.456;10.850;2024-01-06T14:49:37;1.00;99.90
22192;DHT22;11261;52.456;10.850;2024-01-06T14:52:06;1.00;99.90
22192;DHT22;11261;52.456;10.850;2024-01-06T14:54:35;1.00;99.90
22192;DHT22;11261;52.456;10.850;2024-01-06T14:57:04;1.00;99.90
22192;DHT22;11261;52.456;10.850;2024-01-06T14:59:33;0.90;99.90
22192;DHT22;11261;52.456;10.850;2024-01-06T15:02:03;1.00;99.90
22192;DHT22;11261;52.456;10.850;2024-01-06T15:04:32;1.00;99.90
22192;DHT22;11261;52.456;10.850;2024-01-06T15:07:02;0.90;99.90
22192;DHT22;11261;52.456;10.850;2024-01-06T15:09:31;0.80;99.90
22192;DHT22;11261;52.456;10.850;2024-01-06T15:11:59;0.80;99.90
22192;DHT22;11261;52.456;10.850;2024-01-06T15:14:28;1.00;99.90
22192;DHT22;11261;52.456;10.850;2024-01-06T15:16:56;0.90;99.90
22192;DHT22;11261;52.456;10.850;2024-01-06T15:19:24;0.80;99.90
22192;DHT22;11261;52.456;10.850;2024-01-06T15:21:55;0.90;99.90
22192;DHT22;11261;52.456;10.850;2024-01-06T15:24:24;0.90;99.90
22192;DHT22;11261;52.456;10.850;2024-01-06T15:26:53;1.00;99.90
22192;DHT22;11261;52.456;10.850;2024-01-06T15:29:21;0.90;99.90
22192;DHT22;11261;52.456;10.850;2024-01-06T15:31:50;0.90;99.90
22192;DHT22;11261;52.456;10.850;2024-01-06T15:34:24;0.80;99.90
22192;DHT22;11261;52.456;10.850;2024-01-06T15:36:53;0.90;99.90
22192;DHT22;11261;52.456;10.850;2024-01-06T15:39:21;0.80;99.90
22192;DHT22;11261;52.456;10.850;2024-01-06T15:41:51;0.80;99.90
22192;DHT22;11261;52.456;10.850;2024-01-06T15:44:20;0.80;99.90
22192;DHT22;11261;52.456;10.850;2024-01-06T15:46:48;0.90;99.90